Time;durP1;ratioP1;P1;durP2;ratioP2;P2;SDS_P1;SDS_P2;PMS_P1;PMS_P2;Temp;Humidity;BMP_temperature;BMP_pressure;BME280_temperature;BME280_humidity;BME280_pressure;Samples;Min_cycle;Max_cycle;Signal;HPM_P1;HPM_P2
2021/01/24 00:02:26;;;;;;;17.63;10.70;;;33.30;99.90;;;;;;5073584;28;20020;-61
2021/01/24 00:04:53;;;;;;;11.95;10.85;;;33.40;99.90;;;;;;5073694;28;20480;-61
2021/01/24 00:07:21;;;;;;;14.95;10.30;;;33.50;99.90;;;;;;5073466;28;20045;-61
2021/01/24 00:09:48;;;;;;;11.13;10.00;;;33.40;99.90;;;;;;5072285;28;20354;-61
2021/01/24 00:12:15;;;;;;;10.27;9.27;;;33.50;99.90;;;;;;5073454;28;20028;-61
2021/01/24 00:14:43;;;;;;;13.50;9.82;;;33.40;99.90;;;;;;5073199;28;20020;-61
2021/01/24 00:17:10;;;;;;;11.57;9.50;;;33.50;99.90;;;;;;5073396;28;20108;-61
2021/01/24 00:19:37;;;;;;;15.73;10.07;;;33.50;99.90;;;;;;5073351;28;20021;-61
2021/01/24 00:22:05;;;;;;;13.32;10.70;;;33.30;99.90;;;;;;5073347;28;20020;-61
2021/01/24 00:24:32;;;;;;;8.73;7.28;;;33.20;99.90;;;;;;5073194;28;20025;-60
2021/01/24 00:26:59;;;;;;;12.88;7.63;;;33.10;99.90;;;;;;5073217;28;20512;-60
2021/01/24 00:29:27;;;;;;;10.90;7.95;;;32.90;99.90;;;;;;5073282;28;20017;-60
2021/01/24 00:31:54;;;;;;;12.73;8.60;;;32.90;99.90;;;;;;5073193;28;20021;-61
2021/01/24 00:34:22;;;;;;;10.63;8.93;;;32.90;99.90;;;;;;5073253;28;20488;-62
2021/01/24 00:36:49;;;;;;;24.58;9.10;;;32.90;99.90;;;;;;5073147;28;20017;-63
2021/01/24 00:39:16;;;;;;;12.05;8.93;;;32.90;99.90;;;;;;5073258;28;20024;-61
2021/01/24 00:41:44;;;;;;;15.60;8.10;;;32.80;99.90;;;;;;5073126;28;20094;-61
2021/01/24 00:44:11;;;;;;;13.43;7.55;;;32.70;99.90;;;;;;5073081;28;20107;-61
2021/01/24 00:46:38;;;;;;;12.63;7.20;;;32.80;99.90;;;;;;5073096;28;20021;-61
2021/01/24 00:49:06;;;;;;;14.10;8.02;;;32.90;99.90;;;;;;5073049;28;20020;-61
2021/01/24 00:51:33;;;;;;;11.27;8.20;;;32.90;99.90;;;;;;5072848;28;20035;-61
2021/01/24 00:54:00;;;;;;;11.75;8.48;;;32.50;99.90;;;;;;5073027;28;20052;-62
2021/01/24 00:56:27;;;;;;;8.60;7.20;;;32.40;99.90;;;;;;5073007;28;20029;-61
2021/01/24 00:58:55;;;;;;;11.38;7.72;;;32.50;99.90;;;;;;5072942;28;20384;-62
2021/01/24 01:01:22;;;;;;;9.73;6.88;;;32.70;99.90;;;;;;5073023;28;20036;-62
2021/01/24 01:03:49;;;;;;;12.20;7.20;;;32.90;99.90;;;;;;5072914;28;20025;-62
2021/01/24 01:06:17;;;;;;;12.25;9.70;;;32.50;99.90;;;;;;5072878;28;20513;-61
2021/01/24 01:08:44;;;;;;;46.05;12.77;;;32.40;99.90;;;;;;5072787;28;20056;-62
2021/01/24 01:11:12;;;;;;;63.92;14.57;;;32.50;99.90;;;;;;5073057;28;20021;-60
2021/01/24 01:13:39;;;;;;;10.55;7.90;;;32.40;99.90;;;;;;5072912;28;20465;-61
2021/01/24 01:16:07;;;;;;;10.38;9.18;;;32.40;99.90;;;;;;5072878;28;20039;-61
2021/01/24 01:18:34;;;;;;;11.25;8.75;;;32.40;99.90;;;;;;5072859;28;20381;-62
2021/01/24 01:21:01;;;;;;;12.43;8.95;;;32.30;99.90;;;;;;5072897;28;20086;-61
2021/01/24 01:23:29;;;;;;;10.05;6.97;;;32.50;99.90;;;;;;5073186;28;20060;-61
2021/01/24 01:25:57;;;;;;;9.00;8.10;;;32.40;99.90;;;;;;5072939;28;20036;-61
2021/01/24 01:28:25;;;;;;;10.73;9.65;;;32.20;99.90;;;;;;5076373;28;20499;-61
2021/01/24 01:30:52;;;;;;;10.70;9.80;;;32.40;99.90;;;;;;5076689;28;20025;-61
2021/01/24 01:33:20;;;;;;;9.82;8.57;;;32.50;99.90;;;;;;5077009;28;20031;-61
2021/01/24 01:35:47;;;;;;;8.43;7.07;;;32.60;99.90;;;;;;5078494;28;20020;-61
2021/01/24 01:38:14;;;;;;;10.02;9.13;;;32.70;99.90;;;;;;5077687;28;20020;-62
2021/01/24 01:40:41;;;;;;;9.82;8.93;;;32.60;99.90;;;;;;5077238;28;20372;-61
2021/01/24 01:43:09;;;;;;;8.95;8.05;;;32.60;99.90;;;;;;5077152;28;20021;-59
2021/01/24 01:45:36;;;;;;;14.43;10.63;;;32.60;99.90;;;;;;5076967;28;20024;-60
2021/01/24 01:48:04;;;;;;;10.73;9.70;;;32.40;99.90;;;;;;5076748;28;20024;-61
2021/01/24 01:50:31;;;;;;;10.57;9.60;;;32.60;99.90;;;;;;5076156;28;20035;-60
2021/01/24 01:53:02;;;;;;;10.60;9.63;;;32.70;99.90;;;;;;5076227;28;20019;-60
2021/01/24 01:55:30;;;;;;;10.90;9.80;;;32.80;99.90;;;;;;5076074;28;20500;-60
2021/01/24 01:57:57;;;;;;;11.98;9.65;;;33.10;99.90;;;;;;5076063;28;20020;-60
2021/01/24 02:00:25;;;;;;;10.20;9.20;;;33.20;99.90;;;;;;5076108;28;20036;-60
2021/01/24 02:03:00;;;;;;;10.32;9.57;;;33.30;99.90;;;;;;5076359;28;20025;-60
2021/01/24 02:06:08;;;;;;;10.50;9.70;;;33.40;99.90;;;;;;5076174;28;20024;-59
2021/01/24 02:08:50;;;;;;;13.13;9.35;;;33.50;99.90;;;;;;5052395;28;20063;-60
2021/01/24 02:11:34;;;;;;;13.70;9.80;;;33.30;99.90;;;;;;5076041;28;20468;-60
2021/01/24 02:14:43;;;;;;;9.30;8.50;;;33.40;99.90;;;;;;5074537;28;20173;-60
2021/01/24 02:17:17;;;;;;;11.70;10.70;;;33.40;99.90;;;;;;5072864;28;20380;-62
2021/01/24 02:20:03;;;;;;;11.80;10.85;;;33.50;99.90;;;;;;5075738;28;20362;-60
2021/01/24 02:22:34;;;;;;;8.75;8.02;;;33.60;99.90;;;;;;5075693;28;20026;-61
2021/01/24 02:25:17;;;;;;;10.95;10.05;;;33.50;99.90;;;;;;5075658;28;20381;-60
2021/01/24 02:27:59;;;;;;;12.10;11.02;;;33.50;99.90;;;;;;5075444;28;20522;-60
2021/01/24 02:30:38;;;;;;;10.95;10.05;;;33.50;99.90;;;;;;5075475;28;20024;-61
2021/01/24 02:33:34;;;;;;;10.47;9.67;;;33.60;99.90;;;;;;5075731;28;20528;-60
2021/01/24 02:36:05;;;;;;;11.60;10.40;;;33.60;99.90;;;;;;5072637;28;20033;-61
2021/01/24 02:38:33;;;;;;;13.32;10.48;;;33.80;99.90;;;;;;5075328;28;20027;-61
2021/01/24 02:41:01;;;;;;;10.50;9.60;;;33.70;99.90;;;;;;5075319;28;20037;-61
2021/01/24 02:43:30;;;;;;;11.38;10.40;;;33.70;99.90;;;;;;5075391;28;20044;-61
2021/01/24 02:45:58;;;;;;;10.13;9.32;;;33.70;99.60;;;;;;5075344;28;20037;-60
2021/01/24 02:48:25;;;;;;;12.90;10.13;;;33.80;99.60;;;;;;5075079;28;20025;-61
2021/01/24 02:50:53;;;;;;;10.70;9.75;;;33.90;99.90;;;;;;5075027;28;20571;-61
2021/01/24 02:53:21;;;;;;;11.20;10.20;;;34.00;99.20;;;;;;5074825;28;20024;-61
2021/01/24 02:55:48;;;;;;;11.10;10.20;;;33.90;99.50;;;;;;5075052;28;20020;-61
2021/01/24 02:58:16;;;;;;;11.45;10.50;;;33.90;99.30;;;;;;5074849;28;20017;-61
2021/01/24 03:00:43;;;;;;;9.98;9.25;;;33.80;99.20;;;;;;5074870;28;20039;-61
2021/01/24 03:03:10;;;;;;;11.27;10.27;;;33.80;99.70;;;;;;5074887;28;20113;-60
2021/01/24 03:05:38;;;;;;;11.38;10.45;;;33.80;99.80;;;;;;5074641;28;20506;-61
2021/01/24 03:08:05;;;;;;;11.88;10.77;;;33.70;99.30;;;;;;5074934;28;20051;-61
2021/01/24 03:10:33;;;;;;;10.82;9.80;;;33.70;99.90;;;;;;5074783;28;20021;-59
2021/01/24 03:13:17;;;;;;;11.45;10.38;;;33.80;99.00;;;;;;5075061;28;20479;-62
2021/01/24 03:15:46;;;;;;;11.32;10.40;;;33.60;99.20;;;;;;5074783;28;20020;-62
2021/01/24 03:18:20;;;;;;;11.20;10.50;;;33.60;99.30;;;;;;5074682;28;20021;-62
2021/01/24 03:20:51;;;;;;;11.15;10.40;;;33.60;99.20;;;;;;5074654;28;20031;-62
2021/01/24 03:23:19;;;;;;;11.65;10.73;;;33.40;99.30;;;;;;5074591;28;20032;-62
2021/01/24 03:25:48;;;;;;;10.52;9.80;;;33.60;99.20;;;;;;5074551;28;20024;-62
2021/01/24 03:28:17;;;;;;;11.83;10.93;;;33.50;98.90;;;;;;5074391;28;20020;-61
2021/01/24 03:30:47;;;;;;;10.07;9.30;;;33.50;99.70;;;;;;5074245;28;20048;-60
2021/01/24 03:33:13;;;;;;;;;;;33.60;99.50;;;;;;5074929;28;20019;-60
2021/01/24 03:35:41;;;;;;;10.48;9.60;;;33.60;99.10;;;;;;5074254;28;20023;-60
2021/01/24 03:38:11;;;;;;;11.50;10.55;;;33.60;99.90;;;;;;5072756;28;20050;-60
2021/01/24 03:40:38;;;;;;;10.68;9.77;;;33.50;99.90;;;;;;5074089;28;20078;-61
2021/01/24 03:43:06;;;;;;;10.98;10.10;;;33.40;99.90;;;;;;5074107;28;20027;-62
2021/01/24 03:45:33;;;;;;;10.45;9.63;;;33.50;99.90;;;;;;5074037;28;20050;-61
2021/01/24 03:48:00;;;;;;;10.82;9.82;;;33.70;99.90;;;;;;5073868;28;20028;-61
2021/01/24 03:50:28;;;;;;;11.45;10.48;;;33.80;99.90;;;;;;5073265;28;20056;-61
2021/01/24 03:52:55;;;;;;;10.73;9.90;;;33.70;99.90;;;;;;5073942;28;20024;-61
2021/01/24 03:55:22;;;;;;;11.13;10.10;;;33.40;99.90;;;;;;5073797;28;20027;-61
2021/01/24 03:57:50;;;;;;;10.57;9.88;;;33.60;99.90;;;;;;5073939;28;20024;-61
2021/01/24 04:00:17;;;;;;;9.90;9.20;;;33.50;99.90;;;;;;5073823;28;20029;-61
2021/01/24 04:02:45;;;;;;;12.02;11.13;;;33.40;99.90;;;;;;5073691;28;20063;-61
2021/01/24 04:05:12;;;;;;;11.05;10.15;;;33.50;99.90;;;;;;5073674;28;20025;-61
2021/01/24 04:07:40;;;;;;;11.27;10.43;;;33.60;99.90;;;;;;5073574;28;20487;-62
2021/01/24 04:10:08;;;;;;;10.57;9.57;;;33.60;96.40;;;;;;5073561;28;20025;-62
2021/01/24 04:12:35;;;;;;;10.23;9.20;;;33.60;96.00;;;;;;5073303;28;20040;-61
2021/01/24 04:15:05;;;;;;;10.70;9.80;;;33.30;95.70;;;;;;5073608;28;20031;-62
2021/01/24 04:17:32;;;;;;;11.20;10.50;;;33.30;96.10;;;;;;5073533;28;20035;-59
2021/01/24 04:20:00;;;;;;;11.57;10.30;;;33.20;96.30;;;;;;5073403;28;20025;-61
2021/01/24 04:22:27;;;;;;;11.30;9.05;;;33.30;96.20;;;;;;5073695;28;20090;-61
2021/01/24 04:24:54;;;;;;;10.45;9.23;;;33.20;95.90;;;;;;5073338;28;20384;-61
2021/01/24 04:27:21;;;;;;;11.05;10.13;;;33.30;96.00;;;;;;5073349;28;20021;-61
2021/01/24 04:29:49;;;;;;;11.23;10.20;;;33.30;95.90;;;;;;5073615;28;20048;-62
2021/01/24 04:32:16;;;;;;;10.55;9.63;;;33.40;95.60;;;;;;5073171;28;20059;-61
2021/01/24 04:34:43;;;;;;;10.52;9.73;;;33.40;95.70;;;;;;5073104;28;20024;-61
2021/01/24 04:37:11;;;;;;;10.27;9.52;;;33.60;95.70;;;;;;5073019;28;20024;-61
2021/01/24 04:39:38;;;;;;;12.70;10.30;;;33.80;95.10;;;;;;5073117;28;20013;-61
2021/01/24 04:42:06;;;;;;;10.52;9.68;;;33.80;95.10;;;;;;5073100;28;20073;-62
2021/01/24 04:44:34;;;;;;;10.10;9.40;;;33.90;95.20;;;;;;5073136;28;20017;-61
2021/01/24 04:47:02;;;;;;;11.00;10.00;;;34.10;94.50;;;;;;5073073;28;20028;-62
2021/01/24 04:49:30;;;;;;;11.50;10.63;;;34.20;94.60;;;;;;5073019;28;20029;-61
2021/01/24 04:51:58;;;;;;;10.80;9.90;;;34.30;94.70;;;;;;5073124;28;20036;-61
2021/01/24 04:54:27;;;;;;;10.70;9.70;;;34.40;93.70;;;;;;5073107;28;20381;-61
2021/01/24 04:56:54;;;;;;;10.70;9.80;;;34.30;92.90;;;;;;5072940;28;20362;-62
2021/01/24 04:59:22;;;;;;;10.07;9.40;;;34.30;92.60;;;;;;5072939;28;20020;-61
2021/01/24 05:01:49;;;;;;;9.88;9.05;;;34.30;93.50;;;;;;5073795;28;20064;-62
2021/01/24 05:04:17;;;;;;;10.30;9.50;;;34.40;93.30;;;;;;5077155;28;20020;-61
2021/01/24 05:06:45;;;;;;;10.80;9.82;;;34.40;93.00;;;;;;5076878;28;20047;-61
2021/01/24 05:09:17;;;;;;;10.25;9.45;;;34.40;93.20;;;;;;5077107;28;20099;-62
2021/01/24 05:11:51;;;;;;;9.85;9.02;;;34.30;91.70;;;;;;5075641;28;20034;-61
2021/01/24 05:14:21;;;;;;;9.70;9.00;;;33.80;91.40;;;;;;5076919;28;20040;-63
2021/01/24 05:16:53;;;;;;;9.98;9.13;;;33.70;92.00;;;;;;5076947;28;20095;-62
2021/01/24 05:19:25;;;;;;;10.55;9.77;;;33.60;93.00;;;;;;5077190;28;20033;-63
2021/01/24 05:21:53;;;;;;;12.00;8.90;;;33.70;93.80;;;;;;5076855;28;20078;-62
2021/01/24 05:24:21;;;;;;;9.25;8.52;;;33.80;93.70;;;;;;5076748;28;20056;-61
2021/01/24 05:26:52;;;;;;;9.55;8.75;;;33.70;92.60;;;;;;5076631;28;20033;-60
2021/01/24 05:29:24;;;;;;;9.40;8.63;;;33.70;93.50;;;;;;5076685;28;20024;-61
2021/01/24 05:31:53;;;;;;;9.95;9.13;;;33.80;93.70;;;;;;5076618;28;20483;-61
2021/01/24 05:34:25;;;;;;;9.50;8.75;;;34.00;93.50;;;;;;5076585;28;20405;-63
2021/01/24 05:36:53;;;;;;;9.68;8.38;;;34.20;93.00;;;;;;5076455;28;20027;-61
2021/01/24 05:39:21;;;;;;;9.70;8.80;;;34.40;93.40;;;;;;5076500;28;20052;-61
2021/01/24 05:41:53;;;;;;;10.23;9.43;;;34.50;92.50;;;;;;5076428;28;20039;-61
2021/01/24 05:44:22;;;;;;;10.35;9.65;;;34.40;91.60;;;;;;5076291;28;20033;-61
2021/01/24 05:46:50;;;;;;;9.73;8.70;;;34.40;92.10;;;;;;5076447;28;20020;-61
2021/01/24 05:49:33;;;;;;;9.38;8.77;;;34.20;91.40;;;;;;5076363;28;20025;-61
2021/01/24 05:52:08;;;;;;;9.77;9.02;;;33.80;91.70;;;;;;5076157;28;20389;-61
2021/01/24 05:54:39;;;;;;;9.65;8.75;;;33.90;92.00;;;;;;5076128;28;20040;-61
2021/01/24 05:57:07;;;;;;;9.90;9.00;;;33.70;91.10;;;;;;5076190;28;20028;-62
2021/01/24 05:59:49;;;;;;;9.27;8.13;;;33.20;91.40;;;;;;5076146;28;20385;-61
2021/01/24 06:02:19;;;;;;;9.98;9.00;;;33.20;92.00;;;;;;5076055;28;20434;-61
2021/01/24 06:04:48;;;;;;;9.15;8.25;;;33.00;91.30;;;;;;5075991;28;20029;-60
2021/01/24 06:07:16;;;;;;;9.75;8.73;;;32.90;91.40;;;;;;5075778;28;20131;-60
2021/01/24 06:09:44;;;;;;;14.40;12.90;;;33.00;91.00;;;;;;5075792;28;20031;-61
2021/01/24 06:12:15;;;;;;;10.27;9.38;;;33.00;91.60;;;;;;5075606;28;20073;-61
2021/01/24 06:14:48;;;;;;;10.35;9.40;;;32.80;90.90;;;;;;5075643;28;20064;-61
2021/01/24 06:17:41;;;;;;;9.95;9.05;;;32.80;91.20;;;;;;5075798;28;20423;-61
2021/01/24 06:20:11;;;;;;;10.02;9.23;;;33.10;90.80;;;;;;5067336;28;20400;-61
2021/01/24 06:22:47;;;;;;;9.75;9.00;;;32.90;90.70;;;;;;5075633;28;20020;-61
2021/01/24 06:25:32;;;;;;;9.23;8.50;;;33.00;91.10;;;;;;5075608;28;20020;-61
2021/01/24 06:28:25;;;;;;;8.95;8.25;;;33.20;90.70;;;;;;5075386;28;20024;-59
2021/01/24 06:30:53;;;;;;;10.20;9.00;;;33.80;90.40;;;;;;5075031;28;20055;-61
2021/01/24 06:33:22;;;;;;;9.80;8.88;;;34.10;90.30;;;;;;5075426;28;20115;-61
2021/01/24 06:35:59;;;;;;;9.82;9.02;;;34.40;89.90;;;;;;5075398;28;20025;-61
2021/01/24 06:38:35;;;;;;;11.32;9.10;;;34.30;90.10;;;;;;5075711;28;20025;-62
2021/01/24 06:41:13;;;;;;;9.88;8.90;;;33.80;89.10;;;;;;5076935;28;20028;-61
2021/01/24 06:43:48;;;;;;;9.30;8.43;;;33.90;89.60;;;;;;5075292;28;20113;-62
2021/01/24 06:46:25;;;;;;;9.68;8.88;;;34.10;89.50;;;;;;5075283;28;20500;-62
2021/01/24 06:48:53;;;;;;;9.40;8.60;;;34.30;88.70;;;;;;5075223;28;20428;-63
2021/01/24 06:51:43;;;;;;;9.30;8.38;;;34.40;87.50;;;;;;5075231;28;20056;-64
2021/01/24 06:54:15;;;;;;;;;;;34.20;87.50;;;;;;5076453;28;20103;-62
2021/01/24 06:56:48;;;;;;;10.05;9.20;;;34.20;86.60;;;;;;5073877;28;19905;-61
2021/01/24 06:59:27;;;;;;;9.82;8.88;;;34.30;85.70;;;;;;5075620;28;20032;-62
2021/01/24 07:02:14;;;;;;;;;;;34.30;85.40;;;;;;5075450;28;20109;-63
2021/01/24 07:04:41;;;;;;;9.35;8.65;;;34.20;84.70;;;;;;5074936;28;19905;-63
2021/01/24 07:07:11;;;;;;;9.40;8.80;;;34.00;84.10;;;;;;5074713;28;20462;-65
2021/01/24 07:09:40;;;;;;;9.80;9.00;;;34.00;84.30;;;;;;5074801;28;20047;-63
2021/01/24 07:12:09;;;;;;;10.63;9.02;;;33.60;83.00;;;;;;5074716;28;20025;-62
2021/01/24 07:14:36;;;;;;;9.63;8.80;;;33.40;83.90;;;;;;5074879;28;20103;-62
2021/01/24 07:17:09;;;;;;;9.40;8.50;;;33.00;83.60;;;;;;5074636;28;20423;-62
2021/01/24 07:19:43;;;;;;;10.02;9.20;;;32.50;84.40;;;;;;5074584;28;20032;-62
2021/01/24 07:22:12;;;;;;;10.25;9.32;;;31.90;85.30;;;;;;5074499;28;20427;-62
2021/01/24 07:24:41;;;;;;;9.60;8.70;;;31.60;86.20;;;;;;5073666;28;20021;-62
2021/01/24 07:27:12;;;;;;;9.13;8.20;;;31.30;85.90;;;;;;5074398;28;20020;-62
2021/01/24 07:29:40;;;;;;;9.20;8.32;;;31.10;86.80;;;;;;5074542;28;20249;-62
2021/01/24 07:32:21;;;;;;;9.82;8.80;;;30.80;85.10;;;;;;5074311;28;20051;-62
2021/01/24 07:34:50;;;;;;;11.18;9.40;;;30.60;86.60;;;;;;5074344;28;20070;-62
2021/01/24 07:37:18;;;;;;;8.80;8.10;;;30.40;85.90;;;;;;5074261;28;20020;-62
2021/01/24 07:39:48;;;;;;;9.43;8.63;;;30.10;85.80;;;;;;5074185;28;20435;-62
2021/01/24 07:42:16;;;;;;;9.18;8.50;;;29.90;86.30;;;;;;5074042;28;20531;-62
2021/01/24 07:44:45;;;;;;;9.95;9.10;;;29.70;87.00;;;;;;5074439;28;20029;-62
2021/01/24 07:47:15;;;;;;;10.40;9.48;;;29.60;86.10;;;;;;5074188;28;20149;-61
2021/01/24 07:49:41;;;;;;;;;;;29.50;86.50;;;;;;5074367;28;20108;-62
2021/01/24 07:52:09;;;;;;;9.73;8.90;;;29.30;85.30;;;;;;5073894;28;19912;-63
2021/01/24 07:54:38;;;;;;;9.93;9.02;;;29.30;85.50;;;;;;5074044;28;20028;-63
2021/01/24 07:57:07;;;;;;;7.47;6.65;;;29.20;85.80;;;;;;5073960;28;20032;-62
2021/01/24 07:59:35;;;;;;;8.02;7.20;;;29.00;84.10;;;;;;5073777;28;20024;-63
2021/01/24 08:02:04;;;;;;;9.30;8.48;;;28.80;86.20;;;;;;5073644;28;20031;-62
2021/01/24 08:04:38;;;;;;;9.10;8.50;;;28.80;86.40;;;;;;5073658;28;20381;-62
2021/01/24 08:07:07;;;;;;;8.65;7.80;;;28.70;86.40;;;;;;5073548;28;20049;-62
2021/01/24 08:09:35;;;;;;;10.57;7.80;;;28.60;85.50;;;;;;5074001;28;20032;-61
2021/01/24 08:12:13;;;;;;;11.55;8.20;;;28.60;86.00;;;;;;5073787;28;20603;-62
2021/01/24 08:14:43;;;;;;;9.25;8.38;;;28.50;86.20;;;;;;5074444;28;20044;-58
2021/01/24 08:17:15;;;;;;;9.00;8.10;;;28.50;87.40;;;;;;5074478;28;20023;-60
2021/01/24 08:19:43;;;;;;;9.63;8.07;;;28.50;87.60;;;;;;5074664;28;20465;-60
2021/01/24 08:22:11;;;;;;;8.63;7.68;;;28.30;88.10;;;;;;5074800;28;20027;-60
2021/01/24 08:24:41;;;;;;;9.02;8.15;;;28.30;89.30;;;;;;5074391;28;20021;-59
2021/01/24 08:27:10;;;;;;;10.80;9.23;;;28.10;89.30;;;;;;5074410;28;20408;-59
2021/01/24 08:29:38;;;;;;;10.15;9.23;;;28.10;90.00;;;;;;5074294;28;20036;-60
2021/01/24 08:32:06;;;;;;;12.70;11.02;;;28.00;90.40;;;;;;5074877;28;20029;-59
2021/01/24 08:34:34;;;;;;;14.63;12.52;;;27.90;90.60;;;;;;5074134;28;20020;-59
2021/01/24 08:37:06;;;;;;;13.23;11.15;;;27.90;90.80;;;;;;5074556;28;20028;-60
2021/01/24 08:39:34;;;;;;;15.35;11.15;;;27.90;90.50;;;;;;5074648;28;20021;-59
2021/01/24 08:42:05;;;;;;;14.20;11.25;;;27.80;91.10;;;;;;5075261;28;20039;-59
2021/01/24 08:44:32;;;;;;;13.45;11.20;;;27.80;91.50;;;;;;5074009;28;20469;-58
2021/01/24 08:47:05;;;;;;;12.45;11.18;;;27.70;91.80;;;;;;5073747;28;20035;-59
2021/01/24 08:49:33;;;;;;;14.20;11.52;;;27.70;92.30;;;;;;5073308;28;20020;-61
2021/01/24 08:52:05;;;;;;;15.30;12.32;;;27.60;92.30;;;;;;5073645;28;20032;-60
2021/01/24 08:54:37;;;;;;;14.30;10.75;;;27.70;92.80;;;;;;5073105;28;20032;-60
2021/01/24 08:57:18;;;;;;;13.15;11.07;;;27.60;92.60;;;;;;5072953;28;20115;-60
2021/01/24 08:59:52;;;;;;;14.52;10.75;;;27.60;93.00;;;;;;5072980;28;20020;-59
2021/01/24 09:02:29;;;;;;;13.68;11.77;;;;;;;;;;5072769;28;20024;-60
2021/01/24 09:04:56;;;;;;;18.73;13.93;;;27.40;93.60;;;;;;5072779;28;20079;-60
2021/01/24 09:07:24;;;;;;;15.30;12.65;;;27.40;94.60;;;;;;5072763;28;20123;-60
2021/01/24 09:09:54;;;;;;;15.07;13.45;;;27.40;95.20;;;;;;5072986;28;20028;-59
2021/01/24 09:12:21;;;;;;;17.67;12.90;;;27.40;95.20;;;;;;5072986;28;20111;-60
2021/01/24 09:14:49;;;;;;;15.18;11.40;;;27.30;96.30;;;;;;5072619;28;20532;-59
2021/01/24 09:17:20;;;;;;;12.80;11.35;;;27.30;96.80;;;;;;5072701;28;20063;-59
2021/01/24 09:19:48;;;;;;;17.38;11.68;;;27.20;97.20;;;;;;5073024;28;20114;-58
2021/01/24 09:22:18;;;;;;;15.75;10.85;;;27.10;97.40;;;;;;5072652;28;20500;-59
2021/01/24 09:24:45;;;;;;;15.38;10.98;;;27.00;97.80;;;;;;5071286;28;20481;-59
2021/01/24 09:27:14;;;;;;;16.20;11.68;;;26.90;98.40;;;;;;5072541;28;20074;-59
2021/01/24 09:29:43;;;;;;;17.00;12.65;;;26.80;99.90;;;;;;5072580;28;20078;-60
2021/01/24 09:32:10;;;;;;;19.63;13.88;;;26.70;99.90;;;;;;5072628;28;20028;-61
2021/01/24 09:34:38;;;;;;;16.27;11.40;;;26.50;99.90;;;;;;5072436;28;20052;-61
2021/01/24 09:37:06;;;;;;;18.00;12.75;;;26.40;99.90;;;;;;5072475;28;20101;-60
2021/01/24 09:39:33;;;;;;;19.52;12.30;;;26.20;99.90;;;;;;5072460;28;20492;-61
2021/01/24 09:42:00;;;;;;;18.73;12.95;;;26.10;99.90;;;;;;5072451;28;20093;-61
2021/01/24 09:44:28;;;;;;;20.67;13.27;;;26.10;99.90;;;;;;5072385;28;20047;-62
2021/01/24 09:46:55;;;;;;;21.20;13.23;;;26.00;99.90;;;;;;5072372;28;20043;-61
2021/01/24 09:49:23;;;;;;;21.10;12.57;;;25.90;99.90;;;;;;5075662;28;20066;-60
2021/01/24 09:51:50;;;;;;;18.95;11.27;;;25.80;99.90;;;;;;5076203;28;20090;-59
2021/01/24 09:54:17;;;;;;;19.48;11.50;;;25.80;99.90;;;;;;5076159;28;20024;-58
2021/01/24 09:56:45;;;;;;;18.20;13.18;;;25.60;99.90;;;;;;5076160;28;20029;-60
2021/01/24 09:59:14;;;;;;;14.23;11.50;;;25.60;99.90;;;;;;5076142;28;20036;-60
2021/01/24 10:01:42;;;;;;;22.83;14.23;;;25.50;99.90;;;;;;5075897;28;20477;-60
2021/01/24 10:04:10;;;;;;;22.77;13.52;;;25.50;99.90;;;;;;5076024;28;20113;-61
2021/01/24 10:06:38;;;;;;;16.95;13.88;;;25.40;99.90;;;;;;5075682;28;20044;-61
2021/01/24 10:09:06;;;;;;;21.45;13.30;;;25.40;99.90;;;;;;5075901;28;20112;-61
2021/01/24 10:11:33;;;;;;;22.63;12.43;;;25.40;99.90;;;;;;5075873;28;20025;-59
2021/01/24 10:14:01;;;;;;;19.58;11.82;;;25.40;99.90;;;;;;5075882;28;20052;-60
2021/01/24 10:16:31;;;;;;;19.35;11.27;;;25.40;99.90;;;;;;5075640;28;20054;-58
2021/01/24 10:18:58;;;;;;;19.02;11.85;;;25.30;99.90;;;;;;5075761;28;20075;-60
2021/01/24 10:21:26;;;;;;;18.33;11.18;;;25.40;99.90;;;;;;5075573;28;20112;-59
2021/01/24 10:23:53;;;;;;;17.65;12.30;;;25.40;99.90;;;;;;5075827;28;20021;-60
2021/01/24 10:26:20;;;;;;;20.75;11.57;;;25.50;99.90;;;;;;5075432;28;20115;-60
2021/01/24 10:28:48;;;;;;;16.55;11.13;;;25.50;99.90;;;;;;5075436;28;20023;-60
2021/01/24 10:31:15;;;;;;;20.05;11.15;;;25.40;99.90;;;;;;5075496;28;20442;-61
2021/01/24 10:33:42;;;;;;;16.98;10.80;;;25.40;99.90;;;;;;5075493;28;20104;-60
2021/01/24 10:36:10;;;;;;;20.08;11.05;;;25.50;99.90;;;;;;5075465;28;20029;-61
2021/01/24 10:38:39;;;;;;;20.80;10.30;;;25.40;99.90;;;;;;5075460;28;20078;-63
2021/01/24 10:41:06;;;;;;;15.25;10.05;;;25.40;99.90;;;;;;5075449;28;20029;-59
2021/01/24 10:43:34;;;;;;;16.63;10.18;;;25.40;99.90;;;;;;5075225;28;20021;-60
2021/01/24 10:46:01;;;;;;;14.93;11.52;;;25.30;99.90;;;;;;5075235;28;20040;-60
2021/01/24 10:48:28;;;;;;;18.65;10.48;;;25.40;99.90;;;;;;5075257;28;20017;-59
2021/01/24 10:50:56;;;;;;;13.15;10.15;;;25.40;99.90;;;;;;5075189;28;20042;-60
2021/01/24 10:53:23;;;;;;;18.05;10.73;;;25.30;99.90;;;;;;5075388;28;20472;-60
2021/01/24 10:55:50;;;;;;;17.75;9.98;;;25.40;99.90;;;;;;5074947;28;20111;-60
2021/01/24 10:58:18;;;;;;;16.92;10.70;;;25.60;99.90;;;;;;5074876;28;20146;-59
2021/01/24 11:00:45;;;;;;;15.43;11.68;;;25.60;99.90;;;;;;5073468;28;20024;-59
2021/01/24 11:03:12;;;;;;;18.00;9.73;;;25.60;99.90;;;;;;5074966;28;20024;-59
2021/01/24 11:05:40;;;;;;;16.92;10.98;;;25.50;99.90;;;;;;5074749;28;20435;-60
2021/01/24 11:08:08;;;;;;;17.40;10.48;;;25.40;99.90;;;;;;5074757;28;20033;-61
2021/01/24 11:10:35;;;;;;;13.35;9.48;;;25.40;99.90;;;;;;5074712;28;20139;-61
2021/01/24 11:13:02;;;;;;;14.00;9.73;;;25.40;99.90;;;;;;5075298;28;20513;-58
2021/01/24 11:15:31;;;;;;;12.45;9.63;;;25.30;99.90;;;;;;5074610;28;20039;-59
2021/01/24 11:17:58;;;;;;;13.82;10.13;;;25.40;99.90;;;;;;5074597;28;20101;-60
2021/01/24 11:20:25;;;;;;;16.33;10.38;;;25.30;99.90;;;;;;5074481;28;20493;-60
2021/01/24 11:22:53;;;;;;;15.07;9.77;;;25.30;99.90;;;;;;5074304;28;20411;-59
2021/01/24 11:25:20;;;;;;;18.13;10.55;;;25.30;99.90;;;;;;5074292;28;20043;-60
2021/01/24 11:27:47;;;;;;;14.30;9.23;;;25.30;99.90;;;;;;5074202;28;20024;-60
2021/01/24 11:30:15;;;;;;;15.73;9.65;;;25.20;99.90;;;;;;5074156;28;20103;-59
2021/01/24 11:32:42;;;;;;;13.60;10.38;;;25.20;99.90;;;;;;5074397;28;20093;-61
2021/01/24 11:35:15;;;;;;;14.85;10.93;;;25.20;99.90;;;;;;5074174;28;20400;-61
2021/01/24 11:37:43;;;;;;;18.27;9.40;;;25.20;99.90;;;;;;5074078;28;20025;-58
2021/01/24 11:40:10;;;;;;;23.98;10.77;;;25.10;99.90;;;;;;5074154;28;20048;-60
2021/01/24 11:42:40;;;;;;;16.95;10.13;;;25.00;99.90;;;;;;5074241;28;20027;-59
2021/01/24 11:45:08;;;;;;;19.23;10.70;;;25.00;99.90;;;;;;5074136;28;20013;-59
2021/01/24 11:47:36;;;;;;;22.83;10.35;;;24.90;99.90;;;;;;5074019;28;20100;-58
2021/01/24 11:50:05;;;;;;;15.18;9.65;;;24.90;99.90;;;;;;5073945;28;20023;-57
2021/01/24 11:52:32;;;;;;;14.00;10.18;;;24.90;99.90;;;;;;5073773;28;20467;-58
2021/01/24 11:54:59;;;;;;;14.50;9.93;;;24.80;99.90;;;;;;5073757;28;20111;-59
2021/01/24 11:57:27;;;;;;;15.57;12.25;;;24.80;99.90;;;;;;5073825;28;20036;-57
2021/01/24 11:59:54;;;;;;;19.27;11.95;;;24.80;99.90;;;;;;5073782;28;20021;-58
2021/01/24 12:02:24;;;;;;;16.05;11.13;;;24.70;99.90;;;;;;5073543;28;20151;-58
2021/01/24 12:04:52;;;;;;;14.68;12.20;;;24.70;99.90;;;;;;5073909;28;20412;-58
2021/01/24 12:07:20;;;;;;;14.52;11.95;;;24.70;99.90;;;;;;5073399;28;20052;-59
2021/01/24 12:09:47;;;;;;;17.65;12.18;;;24.70;99.90;;;;;;5073524;28;20048;-59
2021/01/24 12:12:14;;;;;;;17.35;11.73;;;24.60;99.90;;;;;;5073097;28;20473;-59
2021/01/24 12:14:42;;;;;;;19.60;12.43;;;24.60;99.90;;;;;;5073478;28;20036;-58
2021/01/24 12:17:09;;;;;;;20.17;11.95;;;24.60;99.90;;;;;;5073725;28;20021;-58
2021/01/24 12:19:36;;;;;;;17.48;11.40;;;24.50;99.90;;;;;;5073608;28;20017;-59
2021/01/24 12:22:03;;;;;;;17.55;12.07;;;24.40;99.90;;;;;;5073149;28;20416;-58
2021/01/24 12:24:31;;;;;;;15.93;11.55;;;24.40;99.90;;;;;;5073331;28;20020;-58
2021/01/24 12:26:58;;;;;;;20.10;12.45;;;24.40;99.90;;;;;;5073527;28;20420;-58
2021/01/24 12:29:25;;;;;;;14.35;12.10;;;24.30;99.90;;;;;;5073299;28;20091;-59
2021/01/24 12:31:53;;;;;;;16.27;11.98;;;24.30;99.90;;;;;;5073234;28;20073;-59
2021/01/24 12:34:20;;;;;;;16.55;12.18;;;24.20;99.90;;;;;;5073342;28;20029;-58
2021/01/24 12:36:47;;;;;;;17.92;12.10;;;24.20;99.90;;;;;;5073293;28;20025;-58
2021/01/24 12:39:15;;;;;;;17.90;12.20;;;24.30;99.90;;;;;;5073300;28;20385;-58
2021/01/24 12:41:42;;;;;;;15.63;11.75;;;24.20;99.90;;;;;;5073038;28;20020;-58
2021/01/24 12:44:09;;;;;;;12.90;11.65;;;24.20;99.90;;;;;;5073205;28;20047;-58
2021/01/24 12:46:37;;;;;;;16.58;12.32;;;24.10;99.90;;;;;;5073144;28;20436;-57
2021/01/24 12:49:04;;;;;;;14.98;12.35;;;24.10;99.90;;;;;;5073209;28;20021;-59